ZTL Weather Bulletin
Prepared: 7/30/2015 8:30 PM by: WN valid for 9 hours
FOR ATC PLANNING PURPOSES
A cold front will stall over central AL/GA tonight as drier air filters in from the north. Scattered thunderstorms over S ZTL will quickly diminish by 02z, while isolated convection is still possible over NC/SC until 05z with cells moving to the southeast at 10kts. Expect mostly VFR conditions with patchy fog over southern AL/GA after 08z. Surface winds will be north to northwest at 5-8kts over most of ZTL with southwest winds from IRQ-MGM, southward. Flight Hazards outside of convection: None expected. Altimeters will remain above 29.92ins over most of the airspace and will be at or below over SC/SE GA. Ceilings below 050 are not expected outside of convection.

Restricted Area Convection: R2102...None. R3002...None. R3004...None.
FTUS42 KFFC 310204 AAA
TAFATL
TAF AMD
KATL 310204Z 3102/0106 32005KT P6SM SCT100
     FM311000 06004KT P6SM SCT080 SCT250
     FM311500 03005KT P6SM FEW050
     FM312100 34008KT P6SM SCT060
     FM010300 32010KT P6SM SCT150=
Remark: NONE.
FTUS42 KGSP 310224 AAB
TAFCLT
TAF AMD
KCLT 310224Z 3102/3124 VRB04KT P6SM VCSH SCT060 SCT250
      TEMPO 3102/3104 VRB10G20KT 4SM TSRA BKN040CB
     FM310400 01004KT P6SM SCT060
     FM310800 01009KT P6SM FEW060 FEW250
     FM311800 02006KT P6SM FEW060=

Remark: ISOLATED TS POSSIBLE W/NW/N/NE FROM 02-04Z; NE/E/SE/S/SW FROM 04-06Z.
12-18 Hour Forecast Map
Weather Map
Convective Gate Forecast
Convective Gate Forecast


USA.gov is the U.S. government's official web portal to all federal, state and local government web resources and services.